Time;durP1;ratioP1;P1;durP2;ratioP2;P2;SDS_P1;SDS_P2;PMS_P1;PMS_P2;Temp;Humidity;BMP_temperature;BMP_pressure;BME280_temperature;BME280_humidity;BME280_pressure;Samples;Min_cycle;Max_cycle;Signal;HPM_P1;HPM_P2
2021/05/25 00:01:19;;;;;;;1.57;0.80;;;;;;;9.56;90.41;96194.19;4994893;28;20229;-55
2021/05/25 00:03:44;;;;;;;2.00;1.00;;;;;;;9.72;89.38;96195.38;4993897;28;20286;-55
2021/05/25 00:06:09;;;;;;;2.57;0.90;;;;;;;9.71;88.60;96191.94;4994514;28;20515;-58
2021/05/25 00:08:35;;;;;;;0.77;0.77;;;;;;;9.74;88.24;96188.06;4995165;28;20172;-55
2021/05/25 00:11:00;;;;;;;0.60;0.60;;;;;;;9.84;88.43;96178.63;4995001;28;20169;-58
2021/05/25 00:13:26;;;;;;;0.70;0.67;;;;;;;9.69;88.53;96180.88;4994425;28;20745;-58
2021/05/25 00:15:53;;;;;;;1.43;0.70;;;;;;;9.83;88.46;96190.16;4994999;28;20645;-55
2021/05/25 00:18:20;;;;;;;1.83;0.80;;;;;;;9.87;88.05;96183.44;4994530;28;20173;-58
2021/05/25 00:20:46;;;;;;;1.07;0.80;;;;;;;9.69;88.93;96185.31;4978488;28;20472;-58
2021/05/25 00:23:12;;;;;;;2.10;0.97;;;;;;;9.62;89.61;96177.53;4994385;28;20460;-55
2021/05/25 00:25:37;;;;;;;1.40;0.80;;;;;;;9.59;89.91;96178.00;4994598;28;20849;-55
2021/05/25 00:28:03;;;;;;;0.73;0.70;;;;;;;9.43;90.67;96183.06;4994813;28;20176;-58
2021/05/25 00:30:28;;;;;;;0.93;0.80;;;;;;;9.55;91.13;96178.69;4994750;28;20170;-55
2021/05/25 00:32:54;;;;;;;2.47;0.83;;;;;;;9.51;91.40;96191.41;4994413;28;20203;-58
2021/05/25 00:35:19;;;;;;;1.27;1.00;;;;;;;9.38;93.24;96185.56;4976120;28;20191;-58
2021/05/25 00:37:45;;;;;;;1.20;0.93;;;;;;;9.56;92.99;96175.03;4994559;28;20175;-55
2021/05/25 00:40:13;;;;;;;2.20;1.00;;;;;;;9.55;92.39;96179.47;4994511;28;20194;-54
2021/05/25 00:42:39;;;;;;;2.47;0.87;;;;;;;9.48;93.89;96181.38;4994046;28;20555;-58
2021/05/25 00:45:07;;;;;;;0.93;0.87;;;;;;;9.27;95.06;96182.69;4994469;28;20413;-59
2021/05/25 00:47:35;;;;;;;2.00;0.93;;;;;;;9.43;93.78;96178.63;4976664;28;20789;-55
2021/05/25 00:50:12;;;;;;;1.47;0.83;;;;;;;9.24;94.61;96174.44;4988813;28;20428;-58
2021/05/25 00:53:01;;;;;;;2.73;0.90;;;;;;;9.16;95.63;96177.38;4979400;28;20449;-58
2021/05/25 00:55:30;;;;;;;1.60;1.00;;;;;;;9.30;94.05;96184.84;4974873;28;20499;-58
2021/05/25 00:57:58;;;;;;;1.33;0.80;;;;;;;9.51;92.87;96178.28;4974883;28;20409;-58
2021/05/25 01:00:45;;;;;;;3.37;1.00;;;;;;;9.26;92.92;96182.88;4957331;28;20457;-55
2021/05/25 01:03:13;;;;;;;1.23;0.90;;;;;;;9.16;93.52;96182.63;4985542;28;20450;-58
2021/05/25 01:05:39;;;;;;;1.00;0.77;;;;;;;9.05;93.20;96178.13;4974783;28;20429;-59
2021/05/25 01:08:07;;;;;;;3.47;1.10;;;;;;;9.16;92.76;96180.00;4974841;28;20413;-56
2021/05/25 01:10:36;;;;;;;4.57;1.43;;;;;;;8.93;91.80;96172.03;4974486;28;20179;-55
2021/05/25 01:13:06;;;;;;;1.30;1.10;;;;;;;8.85;92.54;96180.16;4974215;28;20553;-59
2021/05/25 01:15:33;;;;;;;3.30;1.17;;;;;;;8.83;92.10;96182.19;4974712;28;20412;-55
2021/05/25 01:17:59;;;;;;;1.50;1.07;;;;;;;9.04;91.30;96176.53;4986347;28;20433;-55
2021/05/25 01:20:27;;;;;;;2.23;1.00;;;;;;;8.87;90.94;96180.75;4974589;28;20499;-58
2021/05/25 01:22:53;;;;;;;2.00;0.93;;;;;;;8.86;91.00;96174.69;4974051;28;21002;-58
2021/05/25 01:25:19;;;;;;;1.70;1.00;;;;;;;8.92;90.27;96178.25;4974529;28;20434;-59
2021/05/25 01:27:54;;;;;;;4.30;1.00;;;;;;;8.92;90.00;96178.25;4974508;28;20771;-58
2021/05/25 01:30:21;;;;;;;2.73;1.10;;;;;;;9.01;89.83;96174.31;4979975;28;20988;-55
2021/05/25 01:32:47;;;;;;;1.03;0.80;;;;;;;9.05;89.92;96178.13;4991543;28;20530;-55
2021/05/25 01:35:13;;;;;;;2.70;1.00;;;;;;;9.06;89.56;96170.03;4975427;28;20518;-58
2021/05/25 01:37:39;;;;;;;1.73;0.80;;;;;;;9.02;89.45;96168.88;4974375;28;20173;-58
2021/05/25 01:40:05;;;;;;;1.87;1.00;;;;;;;8.93;89.84;96166.78;4974499;28;20479;-55
2021/05/25 01:42:33;;;;;;;1.03;0.80;;;;;;;8.91;90.10;96158.34;4974024;28;20188;-58
2021/05/25 01:44:59;;;;;;;2.13;0.97;;;;;;;9.11;88.50;96164.13;4984761;28;20451;-58
2021/05/25 01:47:25;;;;;;;2.20;1.00;;;;;;;9.08;89.79;96175.03;4993897;28;20409;-58
2021/05/25 01:49:50;;;;;;;2.43;1.00;;;;;;;8.99;89.21;96184.22;4993801;28;20939;-55
2021/05/25 01:52:20;;;;;;;0.97;0.83;;;;;;;8.83;90.01;96184.81;4993295;28;20257;-58
2021/05/25 01:54:46;;;;;;;2.13;0.83;;;;;;;8.91;89.80;96169.59;4993742;28;20219;-58
2021/05/25 01:57:12;;;;;;;3.23;1.00;;;;;;;8.85;89.16;96182.78;4993692;28;20910;-55
2021/05/25 01:59:38;;;;;;;2.53;1.03;;;;;;;8.55;90.80;96187.94;4993730;28;20432;-55
2021/05/25 02:02:03;;;;;;;6.00;1.10;;;;;;;8.80;88.86;96188.69;4997110;28;20416;-54
2021/05/25 02:04:32;;;;;;;1.93;0.90;;;;;;;8.62;89.04;96180.03;4997057;28;20211;-58
2021/05/25 02:06:57;;;;;;;1.80;0.90;;;;;;;8.68;89.55;96185.19;4997260;28;20261;-55
2021/05/25 02:09:23;;;;;;;1.70;1.00;;;;;;;8.61;89.32;96192.31;4997172;28;20497;-58
2021/05/25 02:11:48;;;;;;;2.50;1.00;;;;;;;8.68;88.50;96202.72;4997132;28;20175;-58
2021/05/25 02:14:13;;;;;;;1.70;0.90;;;;;;;8.72;88.61;96209.13;4978922;28;20544;-58
2021/05/25 02:16:39;;;;;;;1.60;0.90;;;;;;;8.76;87.52;96194.56;4981065;28;20214;-58
2021/05/25 02:19:07;;;;;;;2.30;1.00;;;;;;;8.73;87.79;96206.28;4996818;28;20179;-54
2021/05/25 02:21:32;;;;;;;1.00;0.90;;;;;;;8.55;88.77;96195.78;4996674;28;20667;-57
2021/05/25 02:23:58;;;;;;;1.77;0.80;;;;;;;8.77;87.47;96181.25;4996948;28;20440;-59
2021/05/25 02:26:24;;;;;;;3.90;0.80;;;;;;;8.60;88.06;96184.69;4996592;28;20178;-54
2021/05/25 02:28:49;;;;;;;2.27;0.70;;;;;;;8.52;88.58;96185.75;4995849;28;20305;-55
2021/05/25 02:31:15;;;;;;;2.00;1.20;;;;;;;8.78;87.44;96187.31;4977551;28;20174;-55
2021/05/25 02:33:41;;;;;;;1.20;0.70;;;;;;;8.47;87.98;96208.38;4977063;28;20216;-58
2021/05/25 02:36:08;;;;;;;3.27;0.90;;;;;;;8.60;87.63;96208.25;4977286;28;20433;-55
2021/05/25 02:38:33;;;;;;;1.83;0.80;;;;;;;8.47;88.45;96214.41;4977192;28;20421;-58
2021/05/25 02:40:59;;;;;;;1.03;1.03;;;;;;;8.50;87.45;96223.66;4982177;28;20468;-58
2021/05/25 02:43:26;;;;;;;1.63;0.93;;;;;;;8.82;86.85;96219.91;4995214;28;20202;-54
2021/05/25 02:45:52;;;;;;;3.20;0.80;;;;;;;8.78;86.44;96226.59;4995127;28;20790;-56
2021/05/25 02:48:21;;;;;;;3.00;1.10;;;;;;;8.43;87.69;96238.59;4996137;28;20432;-58
2021/05/25 02:50:47;;;;;;;1.97;0.90;;;;;;;8.44;87.62;96245.47;4996678;28;20401;-54
2021/05/25 02:53:13;;;;;;;1.73;0.80;;;;;;;8.58;87.38;96242.50;4996093;28;20440;-58
2021/05/25 02:55:40;;;;;;;1.83;0.80;;;;;;;8.57;86.65;96237.50;4978430;28;20176;-54
2021/05/25 02:58:07;;;;;;;0.90;0.80;;;;;;;8.47;86.64;96239.78;4977094;28;20460;-54
2021/05/25 03:00:38;;;;;;;1.50;0.73;;;;;;;8.37;88.19;96235.03;4969839;28;20464;-57
2021/05/25 03:03:05;;;;;;;1.80;1.00;;;;;;;8.22;87.62;96248.41;4995464;28;20442;-58
2021/05/25 03:05:31;;;;;;;3.50;1.00;;;;;;;8.32;88.13;96237.50;4996263;28;20906;-55
2021/05/25 03:08:00;;;;;;;1.47;1.20;;;;;;;8.58;87.14;96216.31;4978786;28;20479;-58
2021/05/25 03:10:29;;;;;;;1.03;0.70;;;;;;;8.19;89.03;96220.06;4985946;28;20184;-58
2021/05/25 03:12:54;;;;;;;1.90;0.77;;;;;;;8.34;88.11;96227.59;4989738;28;20454;-54
2021/05/25 03:15:24;;;;;;;1.43;1.03;;;;;;;8.29;87.81;96223.03;4987071;28;20813;-55
2021/05/25 03:17:50;;;;;;;1.17;0.90;;;;;;;8.25;88.79;96227.09;4976592;28;20170;-55
2021/05/25 03:20:15;;;;;;;2.53;1.07;;;;;;;8.30;88.10;96216.78;4976437;28;20454;-58
2021/05/25 03:22:42;;;;;;;1.10;0.60;;;;;;;8.24;87.80;96232.53;4977053;28;20299;-55
2021/05/25 03:25:09;;;;;;;0.97;0.80;;;;;;;8.26;87.50;96230.50;4981980;28;20433;-58
2021/05/25 03:27:35;;;;;;;1.70;0.90;;;;;;;8.31;87.81;96230.66;4993913;28;20420;-55
2021/05/25 03:30:00;;;;;;;2.07;0.73;;;;;;;8.03;89.19;96238.91;4976646;28;20436;-54
2021/05/25 03:32:26;;;;;;;1.90;0.83;;;;;;;8.15;88.76;96239.81;4975791;28;20904;-55
2021/05/25 03:34:51;;;;;;;1.90;0.97;;;;;;;8.17;88.83;96237.00;4976324;28;20257;-54
2021/05/25 03:37:16;;;;;;;1.40;0.60;;;;;;;8.12;89.27;96244.66;4959298;28;20543;-54
2021/05/25 03:39:42;;;;;;;5.30;1.20;;;;;;;8.35;88.26;96239.69;4976296;28;20204;-54
2021/05/25 03:42:07;;;;;;;4.50;0.90;;;;;;;8.20;88.38;96239.19;4977677;28;20248;-58
2021/05/25 03:44:33;;;;;;;0.80;0.80;;;;;;;8.26;88.43;96235.75;4989107;28;20287;-55
2021/05/25 03:46:58;;;;;;;1.70;0.87;;;;;;;8.05;89.12;96247.34;4977000;28;20620;-58
2021/05/25 03:49:24;;;;;;;1.77;0.80;;;;;;;8.10;89.29;96252.72;4976048;28;20558;-58
2021/05/25 03:51:49;;;;;;;2.43;0.90;;;;;;;7.96;90.17;96253.03;4991172;28;20192;-58
2021/05/25 03:59:58;;;;;;;0.97;0.97;;;;;;;8.06;89.32;96242.91;4959517;28;20450;-58
2021/05/25 04:02:24;;;;;;;0.90;0.90;;;;;;;8.02;89.01;96237.31;4994874;28;20426;-58
2021/05/25 04:04:49;;;;;;;0.80;0.70;;;;;;;8.04;88.03;96224.00;4991137;28;20638;-55
2021/05/25 04:07:14;;;;;;;3.70;0.70;;;;;;;7.90;88.88;96253.91;4975610;28;20179;-56
2021/05/25 04:09:40;;;;;;;0.60;0.60;;;;;;;7.97;88.74;96238.97;4975669;28;20182;-58
2021/05/25 04:12:07;;;;;;;1.97;1.00;;;;;;;8.13;87.90;96233.97;4975325;28;20206;-55
2021/05/25 04:14:33;;;;;;;0.80;0.60;;;;;;;8.23;88.13;96246.59;4975870;28;20655;-55
2021/05/25 04:16:58;;;;;;;0.73;0.60;;;;;;;8.19;88.84;96248.84;4975339;28;20421;-58
2021/05/25 04:19:24;;;;;;;0.93;0.60;;;;;;;8.09;88.79;96260.81;4976364;28;20432;-58
2021/05/25 04:21:49;;;;;;;0.87;0.80;;;;;;;8.35;88.64;96259.84;4975056;28;20796;-57
2021/05/25 04:24:15;;;;;;;1.33;0.60;;;;;;;8.17;89.28;96263.16;4956958;28;20200;-55
2021/05/25 04:26:41;;;;;;;1.47;0.60;;;;;;;8.18;88.96;96260.34;4975235;28;20174;-55
2021/05/25 04:29:06;;;;;;;1.17;0.80;;;;;;;8.22;89.28;96269.34;4981111;28;20430;-56
2021/05/25 04:31:32;;;;;;;2.63;0.93;;;;;;;8.19;88.66;96264.53;4994308;28;20173;-54
2021/05/25 04:33:57;;;;;;;1.63;0.67;;;;;;;8.21;88.51;96275.59;4994569;28;20244;-54
2021/05/25 04:36:23;;;;;;;0.70;0.70;;;;;;;8.33;88.46;96287.00;4994712;28;20173;-58
2021/05/25 04:38:48;;;;;;;0.97;0.77;;;;;;;8.46;87.52;96286.09;4994924;28;20176;-55
2021/05/25 04:41:14;;;;;;;2.40;0.97;;;;;;;8.25;87.64;96292.50;4976406;28;20211;-55
2021/05/25 04:43:39;;;;;;;1.40;0.50;;;;;;;8.35;87.81;96286.81;4988812;28;20204;-55
2021/05/25 04:46:04;;;;;;;0.70;0.70;;;;;;;8.40;87.77;96294.00;4992642;28;20188;-54
2021/05/25 04:48:30;;;;;;;0.60;0.60;;;;;;;8.52;86.32;96295.72;4994397;28;20248;-55
2021/05/25 04:50:55;;;;;;;4.77;0.70;;;;;;;8.56;85.45;96299.53;4994417;28;20508;-55
2021/05/25 04:53:21;;;;;;;0.63;0.50;;;;;;;8.87;85.65;96309.13;4988324;28;20194;-58
2021/05/25 04:55:46;;;;;;;0.70;0.70;;;;;;;8.73;84.60;96299.78;4987167;28;20169;-58
2021/05/25 04:58:12;;;;;;;1.60;0.90;;;;;;;8.51;85.27;96306.41;4987571;28;20189;-54
2021/05/25 05:00:37;;;;;;;0.53;0.53;;;;;;;8.69;84.49;96307.28;4992938;28;20198;-54
2021/05/25 05:03:03;;;;;;;2.17;0.73;;;;;;;8.96;83.66;96299.97;4992206;28;20198;-58
2021/05/25 05:05:28;;;;;;;1.20;0.77;;;;;;;8.83;83.12;96308.75;4994027;28;20276;-58
2021/05/25 05:07:54;;;;;;;0.73;0.70;;;;;;;8.64;83.65;96306.31;4994278;28;20177;-54
2021/05/25 05:10:20;;;;;;;0.90;0.53;;;;;;;8.67;84.17;96304.06;4993759;28;20250;-54
2021/05/25 05:12:46;;;;;;;1.77;0.60;;;;;;;8.44;83.70;96316.94;4984417;28;20289;-58
2021/05/25 05:15:13;;;;;;;2.20;0.70;;;;;;;8.54;83.86;96305.97;4974398;28;20952;-58
2021/05/25 05:17:39;;;;;;;1.03;0.70;;;;;;;8.68;83.39;96317.97;4974663;28;20575;-55
2021/05/25 05:20:06;;;;;;;1.70;0.57;;;;;;;8.50;84.18;96318.69;4974530;28;20438;-58
2021/05/25 05:22:32;;;;;;;0.83;0.60;;;;;;;8.63;83.99;96323.03;4974286;28;20173;-55
2021/05/25 05:24:58;;;;;;;1.60;0.70;;;;;;;8.55;83.32;96324.09;4975757;28;20488;-55
2021/05/25 05:27:23;;;;;;;0.70;0.60;;;;;;;8.59;83.90;96316.63;4975129;28;20579;-54
2021/05/25 05:29:49;;;;;;;2.33;0.60;;;;;;;8.75;81.94;96318.72;4985375;28;20176;-54
2021/05/25 05:32:15;;;;;;;0.70;0.70;;;;;;;8.78;82.15;96326.94;4974255;28;20171;-54
2021/05/25 05:34:40;;;;;;;1.60;0.73;;;;;;;8.80;82.04;96326.72;4981685;28;20563;-56
2021/05/25 05:37:06;;;;;;;1.43;0.70;;;;;;;8.94;82.33;96315.09;4980297;28;20453;-59
2021/05/25 05:39:31;;;;;;;1.70;0.60;;;;;;;9.01;81.92;96328.94;4997302;28;20175;-54
2021/05/25 05:41:57;;;;;;;0.70;0.60;;;;;;;9.00;80.06;96322.09;4993026;28;20178;-58
2021/05/25 05:44:22;;;;;;;0.60;0.60;;;;;;;8.91;80.74;96331.25;4996058;28;20687;-58
2021/05/25 05:46:48;;;;;;;1.33;0.70;;;;;;;8.87;81.43;96330.06;4997964;28;20530;-54
2021/05/25 05:49:14;;;;;;;1.53;0.60;;;;;;;8.88;80.39;96331.66;4997732;28;20177;-58
2021/05/25 05:51:39;;;;;;;1.60;0.60;;;;;;;8.85;79.77;96325.06;4997169;28;20171;-58
2021/05/25 05:54:04;;;;;;;1.10;0.50;;;;;;;9.06;79.40;96340.38;4994414;28;20498;-54
2021/05/25 05:56:30;;;;;;;2.50;0.70;;;;;;;9.20;78.98;96339.22;4987444;28;20208;-54
2021/05/25 05:58:56;;;;;;;1.60;0.73;;;;;;;9.24;78.48;96350.06;4969156;28;20288;-58
2021/05/25 06:01:21;;;;;;;1.50;0.80;;;;;;;9.17;78.02;96341.47;4977949;28;20196;-58
2021/05/25 06:03:47;;;;;;;1.23;0.70;;;;;;;9.19;77.42;96332.38;4977398;28;20435;-56
2021/05/25 06:06:13;;;;;;;0.63;0.57;;;;;;;9.37;77.54;96336.03;4977874;28;20231;-55
2021/05/25 06:08:40;;;;;;;2.23;0.87;;;;;;;9.49;76.17;96348.22;4978781;28;20170;-54
2021/05/25 06:11:05;;;;;;;3.53;0.77;;;;;;;9.32;76.70;96365.53;4981743;28;20911;-55
2021/05/25 06:13:31;;;;;;;1.30;1.07;;;;;;;9.36;76.88;96345.72;4981882;28;20453;-57
2021/05/25 06:16:01;;;;;;;0.90;0.73;;;;;;;9.47;76.32;96357.31;4995092;28;20171;-55
2021/05/25 06:18:27;;;;;;;0.70;0.60;;;;;;;9.54;75.95;96353.59;4997194;28;20498;-56
2021/05/25 06:20:52;;;;;;;2.00;0.70;;;;;;;9.67;75.48;96337.69;4980449;28;20541;-58
2021/05/25 06:23:17;;;;;;;1.30;0.87;;;;;;;9.77;75.28;96345.84;4976968;28;20674;-55
2021/05/25 06:25:43;;;;;;;1.07;0.80;;;;;;;9.51;73.76;96346.13;4977446;28;20181;-54
2021/05/25 06:28:09;;;;;;;1.03;0.70;;;;;;;9.51;74.04;96355.84;4984217;28;20174;-55
2021/05/25 06:30:35;;;;;;;0.70;0.70;;;;;;;9.55;74.83;96351.78;4976340;28;20167;-58
2021/05/25 06:33:00;;;;;;;0.60;0.60;;;;;;;9.83;74.50;96338.91;4996289;28;20199;-55
2021/05/25 06:35:26;;;;;;;1.23;0.50;;;;;;;9.71;73.93;96346.72;4991725;28;20478;-55
2021/05/25 06:37:51;;;;;;;0.50;0.50;;;;;;;9.67;73.78;96365.75;4978193;28;20190;-59
2021/05/25 06:40:17;;;;;;;0.63;0.50;;;;;;;9.68;73.82;96362.91;4977320;28;20219;-58
2021/05/25 06:42:43;;;;;;;2.40;0.60;;;;;;;9.70;73.18;96360.06;4976807;28;20638;-54
2021/05/25 06:45:09;;;;;;;0.70;0.70;;;;;;;9.73;73.40;96355.16;4961100;28;20171;-58
2021/05/25 06:47:36;;;;;;;1.33;1.23;;;;;;;9.92;72.65;96353.34;4976208;28;20181;-56
2021/05/25 06:50:01;;;;;;;1.33;0.70;;;;;;;9.99;72.77;96369.78;4994248;28;20412;-55
2021/05/25 06:52:27;;;;;;;2.77;0.87;;;;;;;10.27;71.32;96365.59;4978868;28;20994;-55
2021/05/25 06:54:52;;;;;;;1.27;0.60;;;;;;;10.42;71.85;96364.41;4982426;28;20167;-58
2021/05/25 06:57:18;;;;;;;2.17;0.77;;;;;;;10.25;69.83;96378.13;4979191;28;20173;-59
2021/05/25 06:59:43;;;;;;;1.90;0.70;;;;;;;10.31;71.05;96371.19;4988667;28;20185;-55
2021/05/25 07:02:09;;;;;;;2.23;0.80;;;;;;;10.51;70.37;96365.69;4976392;28;20184;-58
2021/05/25 07:04:34;;;;;;;1.73;0.70;;;;;;;10.11;72.07;96376.72;4994816;28;20565;-59
2021/05/25 07:07:00;;;;;;;0.93;0.60;;;;;;;10.27;71.95;96375.31;4996393;28;20173;-58
2021/05/25 07:09:25;;;;;;;1.23;0.77;;;;;;;10.38;71.24;96377.19;4993002;28;20178;-59
2021/05/25 07:11:50;;;;;;;0.50;0.50;;;;;;;10.57;71.13;96378.72;4977290;28;20178;-58
2021/05/25 07:14:16;;;;;;;1.27;0.80;;;;;;;10.92;70.07;96373.53;4977192;28;20206;-58
2021/05/25 07:16:41;;;;;;;1.57;0.60;;;;;;;11.09;68.74;96363.91;4976681;28;20173;-58
2021/05/25 07:19:07;;;;;;;0.73;0.73;;;;;;;10.53;68.22;96361.78;4976677;28;20178;-59
2021/05/25 07:21:32;;;;;;;1.50;0.60;;;;;;;10.45;67.57;96369.19;4994839;28;20211;-55
2021/05/25 07:23:58;;;;;;;1.90;0.70;;;;;;;10.71;67.68;96356.47;5014091;28;20192;-54
2021/05/25 07:26:24;;;;;;;1.23;0.60;;;;;;;10.67;67.15;96376.31;4999283;28;20184;-54
2021/05/25 07:28:50;;;;;;;1.33;0.73;;;;;;;10.73;67.00;96372.81;5003286;28;20527;-58
2021/05/25 07:31:15;;;;;;;1.23;0.63;;;;;;;10.90;67.21;96368.50;4995262;28;20631;-58
2021/05/25 07:33:41;;;;;;;1.33;0.40;;;;;;;10.77;65.03;96376.59;4995157;28;20212;-59
2021/05/25 07:36:07;;;;;;;1.27;0.80;;;;;;;10.96;65.40;96396.50;4995616;28;20204;-55
2021/05/25 07:38:33;;;;;;;1.17;0.60;;;;;;;11.36;64.60;96389.53;4995169;28;20283;-58
2021/05/25 07:40:58;;;;;;;1.13;0.60;;;;;;;11.37;64.10;96396.41;4995660;28;20209;-55
2021/05/25 07:43:23;;;;;;;1.57;0.67;;;;;;;10.96;63.64;96375.47;4994279;28;20287;-59
2021/05/25 07:45:49;;;;;;;2.00;0.63;;;;;;;11.20;62.58;96394.69;4995640;28;20191;-55
2021/05/25 07:48:15;;;;;;;3.40;0.80;;;;;;;11.21;61.51;96397.06;4995466;28;20252;-56
2021/05/25 07:50:41;;;;;;;3.17;0.80;;;;;;;11.18;61.22;96391.47;4994992;28;20177;-56
2021/05/25 07:53:06;;;;;;;2.87;1.27;;;;;;;11.34;61.57;96394.22;4986978;28;20663;-54
2021/05/25 07:55:32;;;;;;;3.30;0.90;;;;;;;11.46;61.61;96373.19;4995442;28;20427;-54
2021/05/25 07:57:59;;;;;;;0.90;0.43;;;;;;;11.31;61.68;96393.88;4994447;28;20177;-58
2021/05/25 08:00:26;;;;;;;3.23;0.63;;;;;;;11.35;61.51;96384.50;4988524;28;20327;-54
2021/05/25 08:02:54;;;;;;;1.70;0.50;;;;;;;11.17;62.84;96387.25;4984371;28;20473;-56
2021/05/25 08:05:21;;;;;;;1.27;0.60;;;;;;;11.28;62.46;96412.75;4990455;28;20459;-55
2021/05/25 08:07:47;;;;;;;2.30;0.60;;;;;;;11.36;61.90;96388.72;4991616;28;20978;-54
2021/05/25 08:10:14;;;;;;;4.27;0.93;;;;;;;11.46;61.43;96417.91;4991598;28;20419;-56
2021/05/25 08:12:40;;;;;;;4.33;1.10;;;;;;;11.26;60.60;96401.66;4974110;28;20761;-56
2021/05/25 08:15:06;;;;;;;1.40;0.60;;;;;;;11.52;61.04;96411.75;4971588;28;20410;-56
2021/05/25 08:20:13;;;;;;;0.50;0.50;;;;;;;11.72;60.44;96417.44;4974392;28;20500;-55
2021/05/25 08:22:38;;;;;;;2.20;0.57;;;;;;;11.64;60.03;96420.41;4991014;28;20891;-55
2021/05/25 08:25:04;;;;;;;4.40;0.80;;;;;;;11.64;59.97;96425.69;4973977;28;20516;-55
2021/05/25 08:27:30;;;;;;;1.73;1.00;;;;;;;11.43;59.58;96442.06;4981203;28;20681;-56
2021/05/25 08:29:55;;;;;;;1.43;0.57;;;;;;;11.45;61.27;96431.31;4977837;28;20425;-55
2021/05/25 08:32:20;;;;;;;2.53;0.73;;;;;;;11.61;61.24;96443.75;4987130;28;20192;-55
2021/05/25 08:34:46;;;;;;;0.97;0.50;;;;;;;11.55;60.21;96450.75;4987453;28;20189;-55
2021/05/25 08:37:11;;;;;;;3.37;0.73;;;;;;;11.57;60.37;96448.69;4990232;28;20578;-55
2021/05/25 08:39:36;;;;;;;1.87;0.50;;;;;;;12.03;59.48;96458.41;4987041;28;20205;-56
2021/05/25 08:42:03;;;;;;;2.50;0.93;;;;;;;11.81;61.41;96454.75;4984098;28;20633;-54
2021/05/25 08:44:29;;;;;;;3.00;1.00;;;;;;;11.45;60.05;96458.38;4988346;28;20195;-55
2021/05/25 08:46:55;;;;;;;0.87;0.47;;;;;;;11.31;61.23;96476.22;4985748;28;20902;-54
2021/05/25 08:49:21;;;;;;;1.63;0.60;;;;;;;11.20;61.79;96476.22;4985077;28;20435;-55
2021/05/25 08:51:47;;;;;;;0.80;0.63;;;;;;;11.31;61.69;96478.06;4982240;28;20422;-54
2021/05/25 08:54:13;;;;;;;1.07;0.60;;;;;;;11.31;61.52;96478.06;4982339;28;20507;-56
2021/05/25 08:56:38;;;;;;;1.70;0.67;;;;;;;11.48;61.99;96472.94;4988126;28;20223;-55
2021/05/25 08:59:04;;;;;;;1.30;0.80;;;;;;;11.66;61.20;96484.19;4985625;28;20420;-55
2021/05/25 09:01:29;;;;;;;2.30;0.80;;;;;;;11.77;60.85;96457.06;4979261;28;20236;-56
2021/05/25 09:03:56;;;;;;;3.13;0.70;;;;;;;11.63;60.85;96499.59;4988145;28;20189;-55
2021/05/25 09:06:42;;;;;;;2.20;0.60;;;;;;;11.61;60.33;96505.09;4993742;28;20551;-55
2021/05/25 09:09:11;;;;;;;0.70;0.60;;;;;;;11.63;60.04;96489.84;4986212;28;20510;-56
2021/05/25 09:12:07;;;;;;;2.83;0.70;;;;;;;11.62;61.47;96496.16;4992642;28;20418;-55
2021/05/25 09:14:47;;;;;;;1.30;0.63;;;;;;;11.64;61.56;96485.41;4991806;28;20451;-54
2021/05/25 09:17:24;;;;;;;3.23;0.67;;;;;;;11.75;60.79;96500.44;4985032;28;20483;-56
2021/05/25 09:19:51;;;;;;;0.80;0.50;;;;;;;11.73;60.73;96484.88;4985008;28;20424;-55
2021/05/25 09:22:26;;;;;;;2.63;0.70;;;;;;;12.01;60.69;96499.97;4993525;28;20431;-61
2021/05/25 09:24:51;;;;;;;1.73;0.90;;;;;;;12.10;60.14;96504.63;4993038;28;20459;-54
2021/05/25 09:27:35;;;;;;;2.67;0.63;;;;;;;11.64;59.27;96520.44;4993380;28;20833;-59
2021/05/25 09:30:18;;;;;;;0.83;0.50;;;;;;;11.77;59.53;96493.09;4993420;28;20536;-57
2021/05/25 09:32:51;;;;;;;1.20;0.60;;;;;;;11.90;60.75;96506.81;4993334;28;20837;-54
2021/05/25 09:35:22;;;;;;;1.07;0.93;;;;;;;11.57;60.80;96514.47;4985889;28;20432;-57
2021/05/25 09:37:50;;;;;;;1.00;0.57;;;;;;;11.48;62.71;96512.41;4984234;28;20416;-57
2021/05/25 09:40:18;;;;;;;1.37;0.63;;;;;;;11.43;61.57;96512.28;4993918;28;20474;-54
2021/05/25 09:42:47;;;;;;;2.40;0.70;;;;;;;11.49;61.19;96503.47;4993370;28;20457;-55
2021/05/25 09:45:17;;;;;;;1.90;0.80;;;;;;;11.72;61.87;96511.44;4993900;28;20401;-57
2021/05/25 09:47:51;;;;;;;3.73;0.90;;;;;;;11.78;60.59;96510.50;4993507;28;20404;-55
2021/05/25 09:50:18;;;;;;;1.37;0.70;;;;;;;12.12;60.90;96507.06;4994070;28;20448;-57
2021/05/25 09:53:08;;;;;;;0.70;0.50;;;;;;;11.88;58.44;96513.38;4981771;28;20441;-58
2021/05/25 09:56:05;;;;;;;2.87;0.83;;;;;;;12.00;59.20;96522.84;4983962;28;20424;-55
2021/05/25 09:58:33;;;;;;;2.27;1.10;;;;;;;12.33;58.74;96522.25;4950599;28;20439;-54
2021/05/25 10:01:00;;;;;;;12.13;1.07;;;;;;;12.19;57.64;96523.53;4993637;28;20926;-59
2021/05/25 10:03:27;;;;;;;1.37;0.60;;;;;;;12.24;55.72;96518.38;4993142;28;20429;-57
2021/05/25 10:06:00;;;;;;;3.27;0.90;;;;;;;12.09;55.61;96532.00;4993369;28;20430;-54
2021/05/25 10:08:26;;;;;;;0.70;0.67;;;;;;;11.97;57.77;96544.41;4993969;28;20397;-58
2021/05/25 10:10:54;;;;;;;0.70;0.70;;;;;;;11.86;57.80;96524.13;4979489;28;20823;-58
2021/05/25 10:13:22;;;;;;;3.70;1.30;;;;;;;12.30;58.40;96526.13;4973626;28;20916;-54
2021/05/25 10:15:48;;;;;;;1.17;0.80;;;;;;;12.25;56.55;96515.50;4974298;28;20402;-57
2021/05/25 10:20:40;;;;;;;1.57;0.70;;;;;;;13.16;54.56;96512.00;4991062;28;20452;-57
2021/05/25 10:23:07;;;;;;;0.80;0.70;;;;;;;13.27;55.01;96519.84;4996585;28;20960;-55
2021/05/25 10:25:36;;;;;;;2.43;1.10;;;;;;;13.05;53.87;96518.94;4997129;28;20181;-55
2021/05/25 10:28:06;;;;;;;2.47;0.80;;;;;;;12.82;53.15;96524.28;4997206;28;20412;-58
2021/05/25 10:30:34;;;;;;;1.30;0.80;;;;;;;12.90;54.19;96517.84;4996723;28;20412;-57
2021/05/25 10:33:05;;;;;;;2.73;0.80;;;;;;;12.52;54.14;96530.81;4996415;28;21049;-54
2021/05/25 10:35:50;;;;;;;1.23;0.70;;;;;;;12.36;55.64;96525.22;4985185;28;20431;-55
2021/05/25 10:38:16;;;;;;;7.83;0.93;;;;;;;12.41;54.91;96550.84;4983967;28;20994;-54
2021/05/25 10:40:47;;;;;;;0.63;0.63;;;;;;;12.35;55.60;96539.44;4977097;28;20457;-55
2021/05/25 10:43:31;;;;;;;1.20;0.63;;;;;;;12.45;54.54;96556.50;4976611;28;20429;-55
2021/05/25 10:46:27;;;;;;;2.00;0.90;;;;;;;12.17;55.33;96541.41;4977363;28;20393;-58
2021/05/25 10:49:12;;;;;;;1.17;0.70;;;;;;;12.29;55.38;96548.25;4961365;28;20421;-57
2021/05/25 10:51:50;;;;;;;2.07;0.83;;;;;;;12.15;57.77;96546.91;4996194;28;20405;-55
2021/05/25 10:54:31;;;;;;;4.17;0.70;;;;;;;12.05;57.25;96570.38;4996238;28;20504;-54
2021/05/25 10:57:01;;;;;;;3.57;1.20;;;;;;;12.27;57.64;96555.59;4996486;28;20500;-57
2021/05/25 10:59:26;;;;;;;2.47;1.03;;;;;;;12.46;57.36;96550.97;4996500;28;20412;-54
2021/05/25 11:01:57;;;;;;;4.10;0.90;;;;;;;12.52;57.74;96551.88;4995774;28;20455;-57
2021/05/25 11:04:36;;;;;;;5.03;0.90;;;;;;;12.49;57.12;96557.59;4989609;28;20212;-54
2021/05/25 11:07:38;;;;;;;0.90;0.73;;;;;;;12.23;59.02;96562.34;4988390;28;20416;-57
2021/05/25 11:10:28;;;;;;;2.33;0.90;;;;;;;12.07;60.83;96551.69;4996236;28;20427;-56
2021/05/25 11:16:09;;;;;;;1.13;0.93;;;;;;;12.18;62.73;96579.88;4996281;28;20397;-57
2021/05/25 11:18:45;;;;;;;4.00;1.00;;;;;;;12.13;62.28;96606.09;4995879;28;20393;-55
2021/05/25 11:24:36;;;;;;;1.00;0.93;;;;;;;12.12;67.92;96610.56;4976685;28;20513;-54
2021/05/25 11:27:11;;;;;;;1.20;0.83;;;;;;;12.57;66.03;96604.69;4986456;28;20432;-57
2021/05/25 11:29:38;;;;;;;1.77;1.00;;;;;;;12.98;65.51;96609.75;4976873;28;20776;-55
2021/05/25 11:32:12;;;;;;;1.57;0.70;;;;;;;12.70;63.16;96599.19;4975562;28;20405;-55
2021/05/25 11:34:38;;;;;;;1.17;0.53;;;;;;;13.12;64.24;96598.72;4976270;28;20433;-58
2021/05/25 11:37:06;;;;;;;0.90;0.60;;;;;;;12.59;61.04;96621.09;4959118;28;20401;-57
2021/05/25 11:39:34;;;;;;;0.70;0.60;;;;;;;12.31;63.19;96609.44;4976387;28;20464;-57
2021/05/25 11:42:00;;;;;;;1.77;0.70;;;;;;;12.40;61.47;96625.69;4975504;28;20548;-57
2021/05/25 11:44:31;;;;;;;2.10;1.73;;;;;;;12.33;61.29;96611.81;4984784;28;20520;-57
2021/05/25 11:46:56;;;;;;;0.87;0.50;;;;;;;12.09;59.89;96615.47;4989900;28;20182;-54
2021/05/25 11:49:22;;;;;;;0.97;0.60;;;;;;;12.32;60.20;96597.84;4995484;28;20516;-57
2021/05/25 11:51:47;;;;;;;1.43;0.80;;;;;;;12.61;59.32;96603.22;4995186;28;20201;-54
2021/05/25 11:54:19;;;;;;;0.83;0.70;;;;;;;12.87;56.32;96592.13;4995206;28;20189;-55
2021/05/25 11:56:50;;;;;;;3.13;0.77;;;;;;;12.77;55.88;96597.22;4995225;28;20670;-55
2021/05/25 11:59:21;;;;;;;3.00;0.80;;;;;;;12.80;55.39;96589.63;4995482;28;20440;-55